createdAt,value
2023-01-10T00:00:25.194Z,7.79
2023-01-10T00:03:26.576Z,7.87
2023-01-10T00:06:29.144Z,7.84
2023-01-10T00:09:31.738Z,7.79
2023-01-10T00:12:51.145Z,7.80
2023-01-10T00:15:56.819Z,7.85
2023-01-10T00:18:58.159Z,7.85
2023-01-10T00:22:14.107Z,7.77
2023-01-10T00:25:15.627Z,7.72
2023-01-10T00:28:20.594Z,7.73
2023-01-10T00:31:22.697Z,7.69
2023-01-10T00:34:25.839Z,7.68
2023-01-10T00:37:28.456Z,7.69
2023-01-10T00:40:31.073Z,7.61
2023-01-10T00:43:50.818Z,7.67
2023-01-10T00:46:54.456Z,7.75
2023-01-10T00:49:55.813Z,7.71
2023-01-10T00:52:58.436Z,7.68
2023-01-10T00:56:01.056Z,7.65
2023-01-10T00:59:03.003Z,7.72
2023-01-10T01:02:06.333Z,7.76
2023-01-10T01:05:08.569Z,7.73
2023-01-10T01:08:12.659Z,7.72
2023-01-10T01:11:15.224Z,7.56
2023-01-10T01:14:16.532Z,7.53
2023-01-10T01:17:20.356Z,7.48
2023-01-10T01:20:21.861Z,7.45
2023-01-10T01:23:25.309Z,7.40
2023-01-10T01:26:26.714Z,7.29
2023-01-10T01:29:42.423Z,7.36
2023-01-10T01:32:44.851Z,7.32
2023-01-10T01:35:49.426Z,7.20
2023-01-10T01:38:52.159Z,7.16
2023-01-10T01:41:59.798Z,7.13
2023-01-10T01:45:33.304Z,7.14
2023-01-10T01:48:37.678Z,7.17
2023-01-10T01:51:40.550Z,7.13
2023-01-10T01:54:43.533Z,7.03
2023-01-10T01:57:47.794Z,7.03
2023-01-10T02:00:49.347Z,6.89
2023-01-10T02:03:57.874Z,6.82
2023-01-10T02:06:59.539Z,6.74
2023-01-10T02:13:27.977Z,6.85
2023-01-10T02:16:30.564Z,6.79
2023-01-10T02:19:47.809Z,6.79
2023-01-10T02:23:13.993Z,6.68
2023-01-10T02:26:42.472Z,6.74
2023-01-10T02:30:18.379Z,6.76
2023-01-10T02:33:25.707Z,6.79
2023-01-10T02:36:39.287Z,6.79
2023-01-10T02:39:53.793Z,6.80
2023-01-10T02:43:00.777Z,6.82
2023-01-10T02:46:07.374Z,6.86
2023-01-10T02:49:09.431Z,7.02
2023-01-10T02:52:14.183Z,6.98
2023-01-10T02:55:16.246Z,6.88
2023-01-10T02:58:33.100Z,6.88
2023-01-10T03:01:43.686Z,6.87
2023-01-10T03:04:55.479Z,6.82
2023-01-10T03:08:10.546Z,6.83
2023-01-10T03:11:13.203Z,6.84
2023-01-10T03:14:18.602Z,6.86
2023-01-10T03:17:23.765Z,6.81
2023-01-10T03:20:28.606Z,6.88
2023-01-10T03:23:34.350Z,6.88
2023-01-10T03:26:45.483Z,6.85
2023-01-10T03:29:54.233Z,6.97
2023-01-10T03:32:57.486Z,6.91
2023-01-10T03:36:14.322Z,6.97
2023-01-10T03:39:23.120Z,7.01
2023-01-10T03:42:53.255Z,7.00
2023-01-10T03:45:58.550Z,7.01
2023-01-10T03:49:03.677Z,6.97
2023-01-10T03:52:07.174Z,6.90
2023-01-10T03:55:12.611Z,7.03
2023-01-10T03:58:14.912Z,7.10
2023-01-10T04:01:16.506Z,7.17
2023-01-10T04:04:19.106Z,7.11
2023-01-10T04:07:21.263Z,7.02
2023-01-10T04:10:25.304Z,6.98
2023-01-10T04:13:26.965Z,6.99
2023-01-10T04:16:29.463Z,7.10
2023-01-10T04:22:52.011Z,7.05
2023-01-10T04:25:54.247Z,7.11
2023-01-10T04:28:55.866Z,7.16
2023-01-10T04:31:58.404Z,7.17
2023-01-10T04:35:00.626Z,7.11
2023-01-10T04:38:02.625Z,7.14
2023-01-10T04:41:05.146Z,7.06
2023-01-10T04:44:06.577Z,6.97
2023-01-10T04:47:08.326Z,7.03
2023-01-10T04:50:10.789Z,7.07
2023-01-10T04:53:13.398Z,7.09
2023-01-10T04:56:18.893Z,7.06
2023-01-10T04:59:20.390Z,7.07
2023-01-10T05:02:23.045Z,7.10
2023-01-10T05:05:24.961Z,7.08
2023-01-10T05:08:28.577Z,7.14
2023-01-10T05:11:29.871Z,7.09
2023-01-10T05:14:32.475Z,7.09
2023-01-10T05:17:33.932Z,7.19
2023-01-10T05:20:36.545Z,7.15
2023-01-10T05:23:39.294Z,7.09
2023-01-10T05:26:41.921Z,7.14
2023-01-10T05:29:43.739Z,7.11
2023-01-10T05:32:45.326Z,7.14
2023-01-10T05:35:46.663Z,7.09
2023-01-10T05:38:48.982Z,7.24
2023-01-10T05:41:51.537Z,7.26
2023-01-10T05:44:52.995Z,7.29
2023-01-10T05:47:55.522Z,7.17
2023-01-10T05:50:57.220Z,7.25
2023-01-10T05:53:59.168Z,7.21
2023-01-10T05:57:01.770Z,7.10
2023-01-10T06:00:05.207Z,7.09
2023-01-10T06:03:08.395Z,7.09
2023-01-10T06:06:11.647Z,6.98
2023-01-10T06:09:14.874Z,7.10
2023-01-10T06:12:17.868Z,7.03
2023-01-10T06:15:20.915Z,7.04
2023-01-10T06:18:22.229Z,7.05
2023-01-10T06:21:24.751Z,7.12
2023-01-10T06:24:26.732Z,7.15
2023-01-10T06:27:29.334Z,7.30
2023-01-10T06:30:32.052Z,7.24
2023-01-10T06:36:56.404Z,7.26
2023-01-10T06:39:58.675Z,7.25
2023-01-10T06:43:01.225Z,7.34
2023-01-10T06:46:02.583Z,7.23
2023-01-10T06:49:04.018Z,7.28
2023-01-10T06:52:06.742Z,7.26
2023-01-10T06:55:09.577Z,7.20
2023-01-10T06:58:12.465Z,7.13
2023-01-10T07:01:16.303Z,7.08
2023-01-10T07:04:19.215Z,7.08
2023-01-10T07:07:20.518Z,7.16
2023-01-10T07:10:24.056Z,7.10
2023-01-10T07:13:25.665Z,7.14
2023-01-10T07:16:28.507Z,7.05
2023-01-10T07:19:29.808Z,6.98
2023-01-10T07:22:32.322Z,7.01
2023-01-10T07:25:35.546Z,7.08
2023-01-10T07:28:38.511Z,7.01
2023-01-10T07:31:39.866Z,7.07
2023-01-10T07:34:41.321Z,6.99
2023-01-10T07:37:42.584Z,6.94
2023-01-10T07:40:45.839Z,7.04
2023-01-10T07:43:48.077Z,6.88
2023-01-10T07:46:49.911Z,6.90
2023-01-10T07:49:51.238Z,7.04
2023-01-10T07:52:52.806Z,7.02
2023-01-10T07:56:00.355Z,7.12
2023-01-10T07:59:01.680Z,7.06
2023-01-10T08:02:02.984Z,7.22
2023-01-10T08:05:06.436Z,7.20
2023-01-10T08:08:09.624Z,7.12
2023-01-10T08:11:11.639Z,7.16
2023-01-10T08:14:14.282Z,7.32
2023-01-10T08:17:15.705Z,7.37
2023-01-10T08:20:18.555Z,7.31
2023-01-10T08:23:21.217Z,7.25
2023-01-10T08:26:24.497Z,7.35
2023-01-10T08:29:27.103Z,7.33
2023-01-10T08:32:28.858Z,7.27
2023-01-10T08:35:31.464Z,7.28
2023-01-10T08:38:32.781Z,7.39
2023-01-10T08:41:34.790Z,7.43
2023-01-10T08:44:36.591Z,7.49
2023-01-10T08:47:38.100Z,7.43
2023-01-10T08:50:41.201Z,7.38
2023-01-10T08:53:42.476Z,7.60
2023-01-10T08:56:45.918Z,7.73
2023-01-10T08:59:47.239Z,7.71
2023-01-10T09:02:48.620Z,7.87
2023-01-10T09:05:51.241Z,7.85
2023-01-10T09:08:53.123Z,7.90
2023-01-10T09:11:58.010Z,7.96
2023-01-10T09:14:59.374Z,8.07
2023-01-10T09:18:03.238Z,8.12
2023-01-10T09:21:05.973Z,8.08
2023-01-10T09:24:07.685Z,7.99
2023-01-10T09:27:09.874Z,7.80
2023-01-10T09:30:12.714Z,7.78
2023-01-10T09:33:15.022Z,7.75
2023-01-10T09:36:16.342Z,7.97
2023-01-10T09:39:19.303Z,7.97
2023-01-10T09:42:35.271Z,8.06
2023-01-10T09:45:44.671Z,8.15
2023-01-10T09:48:51.991Z,8.26
2023-01-10T09:51:59.243Z,8.22
2023-01-10T09:55:14.310Z,8.48
2023-01-10T09:58:20.871Z,8.66
2023-01-10T10:01:27.353Z,8.69
2023-01-10T10:04:34.591Z,8.50
2023-01-10T10:07:36.180Z,8.32
2023-01-10T10:14:16.716Z,8.17
2023-01-10T10:17:33.362Z,8.21
2023-01-10T10:20:47.390Z,8.34
2023-01-10T10:24:16.470Z,8.53
2023-01-10T10:27:22.307Z,8.29
2023-01-10T10:30:36.751Z,8.44
2023-01-10T10:33:53.128Z,8.34
2023-01-10T10:36:58.960Z,8.20
2023-01-10T10:40:05.006Z,8.34
2023-01-10T10:43:15.652Z,8.58
2023-01-10T10:49:46.733Z,8.78
2023-01-10T10:52:49.370Z,8.68
2023-01-10T10:55:51.887Z,8.82
2023-01-10T10:58:57.989Z,8.71
2023-01-10T11:02:00.662Z,8.74
2023-01-10T11:08:30.386Z,8.76
2023-01-10T11:11:37.293Z,8.60
2023-01-10T11:14:45.176Z,9.03
2023-01-10T11:18:05.392Z,9.09
2023-01-10T11:21:13.479Z,9.19
2023-01-10T11:24:21.684Z,9.29
2023-01-10T11:27:27.897Z,9.34
2023-01-10T11:30:33.383Z,9.24
2023-01-10T11:33:36.843Z,9.31
2023-01-10T11:36:53.219Z,9.24
2023-01-10T11:40:18.394Z,9.36
2023-01-10T11:43:25.976Z,9.30
2023-01-10T11:46:28.179Z,9.32
2023-01-10T11:49:34.900Z,9.30
2023-01-10T11:52:44.368Z,9.28
2023-01-10T11:55:48.024Z,9.51
2023-01-10T11:58:50.750Z,9.73
2023-01-10T12:02:00.925Z,9.72
2023-01-10T12:05:07.505Z,9.56
2023-01-10T12:08:32.101Z,9.64
2023-01-10T12:11:35.112Z,9.73
2023-01-10T12:14:36.875Z,9.88
2023-01-10T12:21:00.043Z,9.71
2023-01-10T12:24:06.452Z,9.79
2023-01-10T12:27:12.338Z,9.77
2023-01-10T12:30:19.878Z,9.70
2023-01-10T12:33:25.456Z,9.50
2023-01-10T12:36:38.012Z,9.43
2023-01-10T12:39:45.808Z,9.30
2023-01-10T12:43:13.211Z,9.29
2023-01-10T12:46:41.035Z,9.28
2023-01-10T12:49:49.066Z,9.25
2023-01-10T12:52:58.796Z,9.25
2023-01-10T12:56:05.326Z,9.19
2023-01-10T12:59:16.202Z,9.27
2023-01-10T13:02:23.907Z,9.20
2023-01-10T13:05:27.339Z,9.23
2023-01-10T13:08:34.734Z,9.22
2023-01-10T13:11:44.293Z,9.28
2023-01-10T13:14:52.476Z,9.07
2023-01-10T13:17:59.241Z,8.98
2023-01-10T13:21:13.810Z,8.93
2023-01-10T13:24:28.297Z,8.86
2023-01-10T13:27:34.072Z,8.95
2023-01-10T13:30:42.682Z,8.97
2023-01-10T13:33:53.813Z,9.01
2023-01-10T13:36:58.009Z,8.95
2023-01-10T13:40:02.967Z,8.91
2023-01-10T13:43:34.946Z,9.04
2023-01-10T13:46:45.060Z,9.02
2023-01-10T13:49:47.967Z,9.00
2023-01-10T13:52:50.722Z,9.03
2023-01-10T13:55:56.193Z,8.92
2023-01-10T13:59:15.747Z,8.80
2023-01-10T14:05:52.120Z,8.83
2023-01-10T14:08:55.852Z,8.70
2023-01-10T14:11:59.628Z,8.71
2023-01-10T14:15:06.137Z,8.71
2023-01-10T14:18:18.898Z,8.84
2023-01-10T14:21:25.403Z,8.76
2023-01-10T14:24:30.295Z,8.74
2023-01-10T14:27:42.714Z,8.64
2023-01-10T14:30:45.460Z,8.62
2023-01-10T14:33:47.839Z,8.51
2023-01-10T14:36:57.101Z,8.42
2023-01-10T14:39:59.702Z,8.45
2023-01-10T14:43:08.406Z,8.42
2023-01-10T14:46:15.428Z,8.24
2023-01-10T14:49:24.535Z,8.27
2023-01-10T14:52:26.253Z,8.33
2023-01-10T14:55:28.937Z,8.22
2023-01-10T14:58:30.928Z,8.15
2023-01-10T15:04:55.669Z,8.24
2023-01-10T15:08:17.276Z,8.12
2023-01-10T15:11:19.575Z,8.21
2023-01-10T15:14:25.596Z,8.14
2023-01-10T15:17:27.675Z,8.06
2023-01-10T15:20:30.898Z,8.09
2023-01-10T15:23:36.236Z,8.13
2023-01-10T15:26:39.078Z,8.03
2023-01-10T15:29:43.977Z,8.01
2023-01-10T15:36:15.629Z,7.97
2023-01-10T15:39:22.983Z,7.91
2023-01-10T15:42:25.651Z,7.84
2023-01-10T15:45:36.773Z,7.83
2023-01-10T15:48:41.592Z,7.86
2023-01-10T15:51:47.583Z,7.78
2023-01-10T15:54:50.302Z,7.75
2023-01-10T15:57:51.783Z,7.76
2023-01-10T16:00:56.539Z,7.78
2023-01-10T16:04:01.132Z,7.74
2023-01-10T16:07:13.134Z,7.77
2023-01-10T16:13:40.858Z,7.76
2023-01-10T16:16:44.069Z,7.71
2023-01-10T16:19:46.640Z,7.73
2023-01-10T16:22:49.131Z,7.79
2023-01-10T16:25:52.764Z,7.80
2023-01-10T16:28:54.180Z,7.87
2023-01-10T16:31:56.370Z,7.92
2023-01-10T16:35:01.990Z,7.93
2023-01-10T16:38:03.594Z,8.04
2023-01-10T16:41:26.800Z,7.91
2023-01-10T16:44:28.500Z,7.96
2023-01-10T16:47:31.761Z,7.97
2023-01-10T16:50:34.404Z,7.93
2023-01-10T16:53:36.952Z,7.81
2023-01-10T16:56:38.282Z,7.72
2023-01-10T16:59:39.794Z,7.84
2023-01-10T17:02:43.262Z,7.73
2023-01-10T17:05:44.671Z,7.77
2023-01-10T17:08:47.378Z,7.86
2023-01-10T17:11:54.887Z,7.81
2023-01-10T17:14:56.363Z,7.87
2023-01-10T17:17:59.612Z,7.75
2023-01-10T17:21:01.072Z,7.75
2023-01-10T17:24:02.457Z,7.70
2023-01-10T17:27:04.075Z,7.76
2023-01-10T17:30:06.246Z,7.81
2023-01-10T17:33:11.284Z,7.64
2023-01-10T17:36:12.644Z,7.65
2023-01-10T17:39:14.435Z,7.54
2023-01-10T17:42:18.812Z,7.67
2023-01-10T17:45:20.312Z,7.49
2023-01-10T17:48:22.358Z,7.58
2023-01-10T17:51:24.310Z,7.56
2023-01-10T17:54:27.311Z,7.55
2023-01-10T17:57:29.097Z,7.35
2023-01-10T18:00:31.339Z,7.33
2023-01-10T18:03:33.392Z,7.30
2023-01-10T18:06:34.741Z,7.36
2023-01-10T18:09:37.369Z,7.37
2023-01-10T18:12:39.039Z,7.35
2023-01-10T18:15:43.365Z,7.30
2023-01-10T18:18:45.371Z,7.48
2023-01-10T18:21:48.578Z,7.30
2023-01-10T18:24:51.042Z,7.25
2023-01-10T18:27:52.650Z,7.37
2023-01-10T18:30:54.734Z,7.48
2023-01-10T18:33:57.677Z,7.29
2023-01-10T18:36:59.035Z,7.36
2023-01-10T18:40:00.392Z,7.28
2023-01-10T18:43:03.001Z,7.18
2023-01-10T18:46:07.947Z,7.26
2023-01-10T18:49:10.824Z,7.20
2023-01-10T18:52:13.474Z,7.15
2023-01-10T18:55:15.297Z,7.08
2023-01-10T18:58:17.852Z,6.98
2023-01-10T19:01:21.303Z,6.90
2023-01-10T19:04:23.629Z,6.90
2023-01-10T19:07:25.659Z,6.88
2023-01-10T19:10:26.989Z,6.84
2023-01-10T19:16:48.066Z,6.73
2023-01-10T19:19:50.099Z,6.91
2023-01-10T19:22:51.466Z,6.75
2023-01-10T19:25:56.013Z,6.60
2023-01-10T19:28:57.432Z,6.74
2023-01-10T19:32:01.036Z,6.75
2023-01-10T19:35:03.162Z,6.62
2023-01-10T19:38:05.730Z,6.59
2023-01-10T19:41:07.067Z,6.57
2023-01-10T19:44:13.544Z,6.57
2023-01-10T19:47:16.472Z,6.59
2023-01-10T19:50:18.835Z,6.42
2023-01-10T19:53:25.402Z,6.40
2023-01-10T19:56:26.853Z,6.54
2023-01-10T19:59:31.781Z,6.55
2023-01-10T20:02:33.938Z,6.49
2023-01-10T20:05:37.469Z,6.44
2023-01-10T20:08:38.809Z,6.50
2023-01-10T20:11:42.220Z,6.56
2023-01-10T20:14:43.527Z,6.35
2023-01-10T20:17:46.171Z,6.32
2023-01-10T20:20:48.610Z,6.31
2023-01-10T20:23:51.405Z,6.24
2023-01-10T20:26:52.805Z,6.21
2023-01-10T20:29:54.272Z,6.29
2023-01-10T20:32:55.589Z,6.31
2023-01-10T20:36:00.117Z,6.39
2023-01-10T20:39:02.995Z,6.31
2023-01-10T20:42:04.406Z,6.29
2023-01-10T20:45:08.797Z,6.46
2023-01-10T20:48:11.625Z,6.20
2023-01-10T20:51:15.548Z,6.19
2023-01-10T20:54:18.110Z,6.35
2023-01-10T20:57:20.280Z,6.14
2023-01-10T21:00:23.206Z,6.21
2023-01-10T21:03:24.980Z,6.17
2023-01-10T21:06:28.531Z,6.26
2023-01-10T21:09:31.143Z,6.20
2023-01-10T21:12:34.893Z,6.22
2023-01-10T21:15:38.595Z,6.20
2023-01-10T21:18:44.763Z,6.19
2023-01-10T21:21:46.735Z,6.32
2023-01-10T21:24:50.358Z,6.24
2023-01-10T21:27:51.749Z,6.24
2023-01-10T21:30:54.378Z,6.39
2023-01-10T21:33:55.686Z,6.20
2023-01-10T21:36:58.936Z,6.16
2023-01-10T21:40:00.304Z,6.06
2023-01-10T21:43:03.161Z,6.01
2023-01-10T21:46:23.955Z,5.88
2023-01-10T21:49:26.579Z,6.11
2023-01-10T21:52:28.521Z,5.95
2023-01-10T21:55:31.234Z,5.86
2023-01-10T21:58:32.781Z,6.14
2023-01-10T22:04:55.949Z,6.13
2023-01-10T22:07:59.394Z,6.02
2023-01-10T22:11:00.718Z,5.78
2023-01-10T22:14:03.324Z,5.95
2023-01-10T22:17:05.965Z,5.96
2023-01-10T22:20:08.937Z,5.95
2023-01-10T22:23:12.318Z,5.90
2023-01-10T22:26:15.572Z,5.85
2023-01-10T22:29:20.229Z,5.92
2023-01-10T22:32:21.563Z,5.90
2023-01-10T22:35:26.604Z,5.75
2023-01-10T22:38:30.334Z,5.70
2023-01-10T22:41:33.074Z,5.61
2023-01-10T22:44:34.350Z,5.76
2023-01-10T22:47:36.929Z,5.71
2023-01-10T22:50:38.825Z,5.71
2023-01-10T22:53:42.504Z,5.96
2023-01-10T22:56:46.541Z,5.74
2023-01-10T22:59:49.063Z,5.75
2023-01-10T23:02:51.690Z,5.91
2023-01-10T23:05:54.008Z,5.87
2023-01-10T23:08:57.613Z,6.15
2023-01-10T23:11:58.915Z,5.91
2023-01-10T23:15:01.472Z,5.97
2023-01-10T23:21:24.404Z,5.98
2023-01-10T23:24:27.741Z,5.93
2023-01-10T23:27:30.287Z,5.88
2023-01-10T23:30:31.649Z,6.13
2023-01-10T23:33:34.779Z,6.05
2023-01-10T23:36:36.090Z,6.07
2023-01-10T23:39:39.466Z,6.04
2023-01-10T23:42:42.025Z,5.96
2023-01-10T23:45:43.879Z,5.93
2023-01-10T23:48:48.802Z,6.31
2023-01-10T23:51:50.161Z,5.97
2023-01-10T23:54:53.933Z,5.91
2023-01-10T23:57:57.212Z,6.13
